Wetterdaten: Woche 10.12.01 - 16.12.01 (KW50)
Datum Zeit Temperatur Luftfeuchte Luftdruck Regenmenge Wind Richtung Taupunkt Windchill
10.12.2001 00:00 -3.6 C 70 % 1032.6 hPa 0.0 l/m 8.3 km/h (2 Bft) O-SO -8.2 C -6.5 C
10.12.2001 01:00 -4.0 C 71 % 1032.6 hPa 0.0 l/m 7.3 km/h (2 Bft) O-SO -8.5 C -6.6 C
10.12.2001 02:00 -4.5 C 74 % 1032.6 hPa 0.0 l/m 10.7 km/h (2 Bft) O-SO -8.4 C -8.7 C
10.12.2001 03:00 -4.8 C 76 % 1032.6 hPa 0.0 l/m 12.0 km/h (2 Bft) O-SO -8.4 C -9.5 C
10.12.2001 04:00 -4.8 C 78 % 1033.7 hPa 0.0 l/m 8.7 km/h (2 Bft) O-SO -8.1 C -8.3 C
10.12.2001 05:00 -3.6 C 71 % 1033.7 hPa 0.0 l/m 5.1 km/h (1 Bft) O-SO -8.0 C -5.2 C
10.12.2001 06:00 -3.4 C 68 % 1033.7 hPa 0.0 l/m 0.3 km/h (0 Bft) O -8.4 C -3.4 C
10.12.2001 07:00 -3.4 C 68 % 1033.7 hPa 0.0 l/m 1.2 km/h (1 Bft) N -8.4 C -3.5 C
10.12.2001 08:00 -3.3 C 68 % 1034.4 hPa 0.0 l/m 2.6 km/h (1 Bft) N -8.3 C -3.9 C
10.12.2001 09:00 -3.1 C 67 % 1034.7 hPa 0.0 l/m 4.1 km/h (1 Bft) NO -8.3 C -4.4 C
10.12.2001 10:00 -2.6 C 66 % 1034.9 hPa 0.0 l/m 2.4 km/h (1 Bft) NO -8.0 C -3.3 C
10.12.2001 11:00 -2.3 C 66 % 1034.7 hPa 0.0 l/m 0.2 km/h (0 Bft) N -7.8 C -2.3 C
10.12.2001 12:00 -2.1 C 66 % 1034.4 hPa 0.0 l/m 0.1 km/h (0 Bft) N -7.6 C -2.1 C
10.12.2001 13:00 -1.9 C 66 % 1033.9 hPa 0.0 l/m 5.7 km/h (1 Bft) O-SO -7.4 C -3.8 C
10.12.2001 14:00 -2.2 C 68 % 1033.7 hPa 0.0 l/m 11.6 km/h (2 Bft) O-SO -7.3 C -6.2 C
10.12.2001 15:00 -2.7 C 72 % 1033.7 hPa 0.0 l/m 11.9 km/h (2 Bft) O-SO -7.1 C -6.9 C
10.12.2001 16:00 -4.0 C 76 % 1033.7 hPa 0.0 l/m 5.4 km/h (1 Bft) O-SO -7.6 C -5.8 C
10.12.2001 17:00 -5.1 C 82 % 1033.7 hPa 0.0 l/m 2.0 km/h (1 Bft) O -7.7 C -5.5 C
10.12.2001 18:00 -5.5 C 85 % 1033.7 hPa 0.0 l/m 0.3 km/h (0 Bft) O-SO -7.6 C -5.5 C
10.12.2001 19:00 -5.7 C 86 % 1033.7 hPa 0.0 l/m 0.8 km/h (0 Bft) O -7.7 C -5.7 C
10.12.2001 20:00 -6.2 C 86 % 1033.7 hPa 0.0 l/m 0.0 km/h (0 Bft) N -8.1 C -6.2 C
10.12.2001 21:00 -6.1 C 85 % 1033.7 hPa 0.0 l/m 0.0 km/h (0 Bft) N -8.2 C -6.1 C
10.12.2001 22:00 -6.1 C 84 % 1033.7 hPa 0.0 l/m 0.5 km/h (0 Bft) O -8.4 C -6.1 C
10.12.2001 23:00 -6.3 C 85 % 1033.7 hPa 0.0 l/m 0.0 km/h (0 Bft) N -8.3 C -6.3 C
11.12.2001 00:00 -6.4 C 88 % 1032.7 hPa 0.0 l/m 0.2 km/h (0 Bft) O-SO -8.1 C -6.5 C
11.12.2001 01:00 -6.3 C 88 % 1032.6 hPa 0.0 l/m 0.2 km/h (0 Bft) N -8.0 C -6.3 C
11.12.2001 02:00 -6.4 C 88 % 1032.6 hPa 0.0 l/m 0.0 km/h (0 Bft) N -8.1 C -6.4 C
11.12.2001 03:00 -6.6 C 89 % 1032.6 hPa 0.0 l/m 0.0 km/h (0 Bft) N -8.2 C -6.6 C
11.12.2001 04:00 -6.3 C 88 % 1031.6 hPa 0.0 l/m 0.0 km/h (0 Bft) N -7.9 C -6.3 C
11.12.2001 05:00 -5.7 C 87 % 1031.6 hPa 0.0 l/m 0.0 km/h (0 Bft) N -7.5 C -5.7 C
11.12.2001 06:00 -5.3 C 87 % 1031.6 hPa 0.0 l/m 0.0 km/h (0 Bft) N -7.2 C -5.3 C
11.12.2001 07:00 -6.0 C 87 % 1031.6 hPa 0.0 l/m 0.0 km/h (0 Bft) N -7.7 C -6.0 C
11.12.2001 08:00 -5.7 C 88 % 1031.6 hPa 0.0 l/m 0.1 km/h (0 Bft) O -7.4 C -5.7 C
11.12.2001 09:00 -4.1 C 85 % 1031.6 hPa 0.0 l/m 0.0 km/h (0 Bft) N -6.2 C -4.1 C
11.12.2001 10:00 -3.1 C 81 % 1030.6 hPa 0.0 l/m 0.3 km/h (0 Bft) W -5.9 C -3.1 C
11.12.2001 11:00 -1.5 C 75 % 1030.5 hPa 0.0 l/m 0.1 km/h (0 Bft) W-NW -5.4 C -1.5 C
11.12.2001 12:00 0.9 C 66 % 1029.5 hPa 0.0 l/m 0.4 km/h (0 Bft) W-NW -4.7 C 0.8 C
11.12.2001 13:00 1.7 C 63 % 1029.0 hPa 0.0 l/m 0.7 km/h (0 Bft) W -4.5 C 1.6 C
11.12.2001 14:00 1.5 C 63 % 1028.5 hPa 0.0 l/m 0.1 km/h (0 Bft) N -4.8 C 1.5 C
11.12.2001 15:00 2.1 C 63 % 1028.5 hPa 0.0 l/m 0.1 km/h (0 Bft) W -4.2 C 2.1 C
11.12.2001 16:00 1.3 C 65 % 1028.0 hPa 0.0 l/m 0.2 km/h (0 Bft) O-NO -4.5 C 1.3 C
11.12.2001 17:00 1.0 C 67 % 1028.4 hPa 0.0 l/m 0.0 km/h (0 Bft) N -4.4 C 1.0 C
11.12.2001 18:00 0.8 C 72 % 1027.5 hPa 0.0 l/m 0.0 km/h (0 Bft) N -3.7 C 0.8 C
11.12.2001 19:00 0.0 C 77 % 1027.4 hPa 0.0 l/m 0.0 km/h (0 Bft) N -3.5 C 0.0 C
11.12.2001 20:00 0.5 C 73 % 1027.4 hPa 0.0 l/m 0.5 km/h (0 Bft) W -3.7 C 0.4 C
11.12.2001 21:00 0.4 C 72 % 1027.4 hPa 0.0 l/m 0.1 km/h (0 Bft) N -4.1 C 0.4 C
11.12.2001 22:00 0.3 C 73 % 1026.4 hPa 0.0 l/m 0.0 km/h (0 Bft) N -4.0 C 0.3 C
11.12.2001 23:00 0.2 C 75 % 1026.4 hPa 0.0 l/m 0.0 km/h (0 Bft) N -3.7 C 0.2 C
12.12.2001 00:00 0.1 C 76 % 1025.5 hPa 0.0 l/m 0.0 km/h (0 Bft) N -3.7 C 0.1 C
12.12.2001 01:00 0.1 C 76 % 1025.3 hPa 0.0 l/m 0.0 km/h (0 Bft) N -3.6 C 0.1 C
12.12.2001 02:00 0.2 C 77 % 1024.7 hPa 0.0 l/m 0.0 km/h (0 Bft) N -3.3 C 0.2 C
12.12.2001 03:00 0.2 C 79 % 1024.3 hPa 0.0 l/m 0.0 km/h (0 Bft) N -3.0 C 0.2 C
12.12.2001 04:00 0.2 C 79 % 1024.3 hPa 0.0 l/m 0.0 km/h (0 Bft) N -3.0 C 0.2 C
12.12.2001 05:00 0.1 C 83 % 1023.4 hPa 0.0 l/m 0.0 km/h (0 Bft) N -2.5 C 0.1 C
12.12.2001 06:00 0.2 C 87 % 1023.3 hPa 0.0 l/m 0.0 km/h (0 Bft) N -1.6 C 0.2 C
12.12.2001 07:00 0.7 C 85 % 1023.3 hPa 0.0 l/m 1.9 km/h (1 Bft) O -1.5 C 0.3 C
12.12.2001 08:00 0.9 C 83 % 1023.3 hPa 0.0 l/m 0.1 km/h (0 Bft) O -1.7 C 0.9 C
12.12.2001 09:00 1.2 C 80 % 1023.3 hPa 0.0 l/m 0.3 km/h (0 Bft) O-NO -1.8 C 1.2 C
12.12.2001 10:00 1.6 C 79 % 1023.3 hPa 0.0 l/m 0.4 km/h (0 Bft) O-NO -1.7 C 1.6 C
12.12.2001 11:00 1.9 C 75 % 1022.9 hPa 0.0 l/m 5.9 km/h (2 Bft) O -2.1 C 0.3 C
12.12.2001 12:00 2.5 C 71 % 1022.2 hPa 0.0 l/m 3.4 km/h (1 Bft) O -2.3 C 1.8 C
12.12.2001 13:00 2.6 C 72 % 1021.9 hPa 0.0 l/m 0.4 km/h (0 Bft) N-NO -2.0 C 2.5 C
12.12.2001 14:00 2.7 C 73 % 1021.2 hPa 0.0 l/m 2.1 km/h (1 Bft) NO -1.7 C 2.2 C
12.12.2001 15:00 2.6 C 74 % 1021.2 hPa 0.0 l/m 1.0 km/h (0 Bft) O-SO -1.6 C 2.5 C
12.12.2001 16:00 2.5 C 74 % 1021.2 hPa 0.0 l/m 0.9 km/h (0 Bft) NO -1.7 C 2.3 C
12.12.2001 17:00 2.2 C 76 % 1021.2 hPa 0.0 l/m 0.1 km/h (0 Bft) N -1.6 C 2.2 C
12.12.2001 18:00 2.0 C 79 % 1021.2 hPa 0.0 l/m 0.6 km/h (0 Bft) N-NO -1.3 C 1.9 C
12.12.2001 19:00 1.7 C 80 % 1021.2 hPa 0.0 l/m 0.1 km/h (0 Bft) N -1.4 C 1.7 C
12.12.2001 20:00 1.6 C 80 % 1021.6 hPa 0.0 l/m 0.8 km/h (0 Bft) O-SO -1.5 C 1.4 C
12.12.2001 21:00 1.4 C 79 % 1021.9 hPa 0.0 l/m 1.8 km/h (1 Bft) O-SO -1.8 C 1.0 C
12.12.2001 22:00 1.2 C 79 % 1021.3 hPa 0.0 l/m 0.2 km/h (0 Bft) O-NO -2.1 C 1.2 C
12.12.2001 23:00 0.9 C 80 % 1021.2 hPa 0.0 l/m 0.1 km/h (0 Bft) N -2.2 C 0.9 C
13.12.2001 00:00 1.2 C 77 % 1021.3 hPa 0.0 l/m 0.3 km/h (0 Bft) N -2.4 C 1.2 C
13.12.2001 01:00 1.2 C 78 % 1021.2 hPa 0.0 l/m 0.0 km/h (0 Bft) N -2.2 C 1.2 C
13.12.2001 02:00 1.2 C 79 % 1021.2 hPa 0.0 l/m 0.5 km/h (0 Bft) O -2.0 C 1.1 C
13.12.2001 03:00 1.2 C 79 % 1021.2 hPa 0.0 l/m 0.7 km/h (0 Bft) O-SO -2.0 C 1.2 C
13.12.2001 04:00 0.9 C 80 % 1021.2 hPa 0.0 l/m 0.1 km/h (0 Bft) O -2.1 C 0.9 C
13.12.2001 05:00 0.2 C 82 % 1021.0 hPa 0.0 l/m 0.2 km/h (0 Bft) N-NO -2.5 C 0.2 C
13.12.2001 06:00 -0.2 C 83 % 1021.2 hPa 0.0 l/m 0.3 km/h (0 Bft) O -2.6 C -0.2 C
13.12.2001 07:00 -0.3 C 80 % 1021.2 hPa 0.0 l/m 0.6 km/h (0 Bft) O -3.3 C -0.4 C
13.12.2001 08:00 -0.9 C 86 % 1021.2 hPa 0.0 l/m 3.3 km/h (1 Bft) O-SO -3.0 C -1.7 C
13.12.2001 09:00 0.4 C 77 % 1021.2 hPa 0.0 l/m 3.5 km/h (1 Bft) N-NO -3.2 C -0.4 C
13.12.2001 10:00 0.8 C 62 % 1021.2 hPa 0.0 l/m 11.8 km/h (2 Bft) N -5.7 C -2.5 C
13.12.2001 11:00 0.3 C 59 % 1021.2 hPa 0.0 l/m 7.0 km/h (2 Bft) N -6.8 C -1.7 C
13.12.2001 12:00 1.1 C 49 % 1020.3 hPa 0.0 l/m 6.7 km/h (2 Bft) N -8.3 C -0.8 C
13.12.2001 13:00 1.2 C 53 % 1020.1 hPa 0.0 l/m 4.1 km/h (1 Bft) N-NW -7.3 C 0.2 C
13.12.2001 14:00 0.5 C 62 % 1020.1 hPa 0.0 l/m 6.2 km/h (2 Bft) N -5.9 C -1.2 C
13.12.2001 15:00 -0.6 C 58 % 1020.1 hPa 0.0 l/m 8.2 km/h (2 Bft) N -7.8 C -2.9 C
13.12.2001 16:00 -1.8 C 56 % 1020.1 hPa 0.0 l/m 4.9 km/h (1 Bft) N -9.3 C -3.1 C
13.12.2001 17:00 -2.6 C 56 % 1020.6 hPa 0.0 l/m 10.2 km/h (2 Bft) N-NO -10.0 C -5.7 C
13.12.2001 18:00 -4.4 C 54 % 1021.7 hPa 0.3 l/m 26.1 km/h (4 Bft) O-SO -12.6 C -11.0 C
13.12.2001 19:00 -7.3 C 56 % 1023.3 hPa 0.0 l/m 24.9 km/h (4 Bft) O -14.5 C -14.9 C
13.12.2001 20:00 -8.9 C 52 % 1024.4 hPa 0.0 l/m 19.0 km/h (3 Bft) NO -16.8 C -15.6 C
13.12.2001 21:00 -10.0 C 53 % 1025.3 hPa 0.0 l/m 11.4 km/h (2 Bft) NO -17.7 C -14.5 C
13.12.2001 22:00 -10.7 C 51 % 1025.3 hPa 0.0 l/m 13.9 km/h (3 Bft) NO -18.7 C -16.6 C
13.12.2001 23:00 -11.5 C 51 % 1025.3 hPa 0.0 l/m 11.6 km/h (2 Bft) NO -19.6 C -16.1 C
14.12.2001 00:00 -12.0 C 49 % 1025.3 hPa 0.0 l/m 10.7 km/h (2 Bft) NO -20.6 C -17.0 C
14.12.2001 01:00 -12.4 C 48 % 1025.3 hPa 0.0 l/m 11.7 km/h (2 Bft) N-NO -21.2 C -17.9 C
14.12.2001 02:00 -12.5 C 49 % 1025.5 hPa 0.0 l/m 10.5 km/h (2 Bft) NO -21.1 C -17.6 C
14.12.2001 03:00 -12.5 C 48 % 1026.4 hPa 0.0 l/m 12.3 km/h (3 Bft) NO -21.2 C -17.9 C
14.12.2001 04:00 -12.9 C 49 % 1026.4 hPa 0.0 l/m 15.1 km/h (3 Bft) O-NO -21.2 C -19.3 C
14.12.2001 05:00 -13.4 C 51 % 1026.7 hPa 0.0 l/m 7.6 km/h (2 Bft) O -21.2 C -16.7 C
14.12.2001 06:00 -13.6 C 52 % 1026.5 hPa 0.0 l/m 12.3 km/h (3 Bft) O-NO -21.3 C -18.8 C
14.12.2001 07:00 -13.7 C 51 % 1027.4 hPa 0.0 l/m 8.7 km/h (2 Bft) O -21.6 C -17.7 C
14.12.2001 08:00 -13.6 C 52 % 1027.4 hPa 0.0 l/m 13.8 km/h (3 Bft) O -21.3 C -20.3 C
14.12.2001 09:00 -12.7 C 50 % 1027.5 hPa 0.0 l/m 14.8 km/h (3 Bft) O-SO -20.8 C -18.9 C
14.12.2001 10:00 -11.6 C 48 % 1028.3 hPa 0.0 l/m 27.9 km/h (4 Bft) O-SO -20.4 C -21.2 C
14.12.2001 11:00 -10.6 C 47 % 1028.2 hPa 0.0 l/m 22.0 km/h (4 Bft) O-SO -19.6 C -18.6 C
14.12.2001 12:00 -9.6 C 48 % 1027.7 hPa 0.0 l/m 21.9 km/h (4 Bft) O-SO -18.5 C -17.5 C
14.12.2001 13:00 -8.7 C 48 % 1027.4 hPa 0.0 l/m 23.4 km/h (4 Bft) O-SO -17.8 C -16.8 C
14.12.2001 14:00 -8.5 C 48 % 1027.4 hPa 0.0 l/m 21.4 km/h (4 Bft) O-SO -17.4 C -16.1 C
14.12.2001 15:00 -8.5 C 51 % 1027.2 hPa 0.0 l/m 20.2 km/h (4 Bft) O-SO -16.8 C -15.9 C
14.12.2001 16:00 -9.1 C 54 % 1027.4 hPa 0.0 l/m 10.0 km/h (2 Bft) O -16.6 C -13.1 C
14.12.2001 17:00 -9.9 C 59 % 1027.4 hPa 0.0 l/m 10.3 km/h (2 Bft) O-SO -16.4 C -14.2 C
14.12.2001 18:00 -10.3 C 61 % 1027.4 hPa 0.0 l/m 5.6 km/h (1 Bft) O-SO -16.4 C -12.5 C
14.12.2001 19:00 -10.5 C 61 % 1027.6 hPa 0.0 l/m 12.2 km/h (2 Bft) O-SO -16.5 C -14.9 C
14.12.2001 20:00 -10.8 C 62 % 1028.5 hPa 0.0 l/m 5.2 km/h (1 Bft) O-SO -16.6 C -12.6 C
14.12.2001 21:00 -10.8 C 64 % 1028.5 hPa 0.0 l/m 16.4 km/h (3 Bft) O-SO -16.3 C -17.3 C
14.12.2001 22:00 -10.7 C 64 % 1028.5 hPa 0.0 l/m 19.5 km/h (3 Bft) O-SO -16.2 C -18.6 C
14.12.2001 23:00 -10.4 C 62 % 1028.5 hPa 0.0 l/m 22.3 km/h (4 Bft) O-SO -16.2 C -18.7 C
15.12.2001 00:00 -10.2 C 59 % 1027.6 hPa 0.0 l/m 21.7 km/h (4 Bft) O-SO -16.6 C -18.3 C
15.12.2001 01:00 -10.2 C 59 % 1027.4 hPa 0.0 l/m 15.8 km/h (3 Bft) O-SO -16.7 C -16.9 C
15.12.2001 02:00 -10.2 C 59 % 1027.4 hPa 0.0 l/m 21.2 km/h (4 Bft) O-SO -16.7 C -18.2 C
15.12.2001 03:00 -10.4 C 59 % 1027.4 hPa 0.0 l/m 13.6 km/h (3 Bft) O-SO -16.8 C -16.1 C
15.12.2001 04:00 -10.5 C 60 % 1027.4 hPa 0.0 l/m 16.0 km/h (3 Bft) O-SO -16.8 C -17.3 C
15.12.2001 05:00 -10.5 C 59 % 1026.4 hPa 0.0 l/m 13.2 km/h (3 Bft) O-SO -16.8 C -16.2 C
15.12.2001 06:00 -10.5 C 60 % 1026.4 hPa 0.0 l/m 8.3 km/h (2 Bft) O-SO -16.6 C -14.5 C
15.12.2001 07:00 -10.6 C 61 % 1026.7 hPa 0.0 l/m 6.3 km/h (2 Bft) O-SO -16.6 C -13.6 C
15.12.2001 08:00 -10.6 C 60 % 1026.6 hPa 0.0 l/m 11.7 km/h (2 Bft) O-SO -16.8 C -16.1 C
15.12.2001 09:00 -10.3 C 60 % 1027.1 hPa 0.0 l/m 8.5 km/h (2 Bft) O-SO -16.6 C -14.3 C
15.12.2001 10:00 -9.5 C 57 % 1027.4 hPa 0.0 l/m 10.2 km/h (2 Bft) O-SO -16.5 C -13.7 C
15.12.2001 11:00 -9.0 C 55 % 1027.0 hPa 0.0 l/m 22.3 km/h (4 Bft) O-SO -16.4 C -17.0 C
15.12.2001 12:00 -8.4 C 55 % 1026.4 hPa 0.0 l/m 18.1 km/h (3 Bft) O-SO -15.7 C -15.4 C
15.12.2001 13:00 -7.8 C 56 % 1025.4 hPa 0.0 l/m 17.9 km/h (3 Bft) O-SO -14.9 C -14.6 C
15.12.2001 14:00 -7.5 C 57 % 1025.3 hPa 0.0 l/m 11.8 km/h (2 Bft) O-SO -14.4 C -12.4 C
15.12.2001 15:00 -7.8 C 59 % 1025.3 hPa 0.0 l/m 10.5 km/h (2 Bft) SO -14.3 C -12.7 C
15.12.2001 16:00 -8.9 C 63 % 1025.3 hPa 0.0 l/m 5.4 km/h (1 Bft) O-SO -14.6 C -11.6 C
15.12.2001 17:00 -9.8 C 67 % 1025.3 hPa 0.0 l/m 3.6 km/h (1 Bft) O-SO -14.8 C -11.6 C
15.12.2001 18:00 -10.7 C 71 % 1025.3 hPa 0.0 l/m 2.8 km/h (1 Bft) SO -14.9 C -12.0 C
15.12.2001 19:00 -11.3 C 75 % 1025.3 hPa 0.0 l/m 0.5 km/h (0 Bft) S-SW -14.8 C -11.5 C
15.12.2001 20:00 -11.7 C 76 % 1025.3 hPa 0.0 l/m 1.8 km/h (1 Bft) SO -15.0 C -12.2 C
15.12.2001 21:00 -11.0 C 76 % 1025.3 hPa 0.0 l/m 0.1 km/h (0 Bft) W -14.5 C -11.0 C
15.12.2001 22:00 -10.4 C 75 % 1024.7 hPa 0.0 l/m 0.8 km/h (0 Bft) W -14.0 C -10.5 C
15.12.2001 23:00 -9.4 C 73 % 1024.3 hPa 0.0 l/m 1.8 km/h (1 Bft) W-NW -13.2 C -10.3 C
16.12.2001 00:00 -8.9 C 76 % 1024.3 hPa 0.0 l/m 0.6 km/h (0 Bft) W-NW -12.3 C -9.1 C
16.12.2001 01:00 -7.8 C 78 % 1024.3 hPa 0.0 l/m 2.2 km/h (1 Bft) O-SO -11.0 C -8.7 C
16.12.2001 02:00 -5.3 C 68 % 1024.3 hPa 0.0 l/m 5.1 km/h (1 Bft) O -10.4 C -6.8 C
16.12.2001 03:00 -5.3 C 65 % 1024.3 hPa 0.0 l/m 9.1 km/h (2 Bft) O -10.8 C -8.1 C
16.12.2001 04:00 -5.5 C 64 % 1024.2 hPa 0.0 l/m 8.5 km/h (2 Bft) O -11.2 C -8.9 C
16.12.2001 05:00 -5.6 C 64 % 1024.0 hPa 0.0 l/m 7.8 km/h (2 Bft) O -11.3 C -8.2 C
16.12.2001 06:00 -5.6 C 64 % 1024.3 hPa 0.0 l/m 12.1 km/h (2 Bft) O -11.4 C -10.4 C
16.12.2001 07:00 -5.6 C 64 % 1024.3 hPa 0.0 l/m 13.3 km/h (3 Bft) O-SO -11.3 C -9.8 C
16.12.2001 08:00 -5.6 C 64 % 1025.3 hPa 0.0 l/m 9.7 km/h (2 Bft) O -11.3 C -9.4 C
16.12.2001 09:00 -5.1 C 62 % 1025.3 hPa 0.0 l/m 4.4 km/h (1 Bft) O-NO -11.2 C -6.6 C
16.12.2001 10:00 -4.3 C 57 % 1025.9 hPa 0.0 l/m 8.3 km/h (2 Bft) O -11.4 C -7.4 C
16.12.2001 11:00 -3.3 C 53 % 1026.4 hPa 0.0 l/m 7.9 km/h (2 Bft) O -11.4 C -5.9 C
16.12.2001 12:00 -2.1 C 51 % 1025.5 hPa 0.0 l/m 10.9 km/h (2 Bft) O -11.0 C -5.4 C
16.12.2001 13:00 -1.6 C 52 % 1025.4 hPa 0.0 l/m 14.8 km/h (3 Bft) O -10.2 C -5.9 C
16.12.2001 14:00 -1.7 C 53 % 1026.7 hPa 0.0 l/m 12.5 km/h (3 Bft) O -10.0 C -5.6 C
16.12.2001 15:00 -2.2 C 55 % 1027.4 hPa 0.0 l/m 6.8 km/h (2 Bft) O-NO -10.1 C -4.1 C
16.12.2001 16:00 -2.8 C 56 % 1028.4 hPa 0.0 l/m 9.7 km/h (2 Bft) O-NO -10.5 C -5.9 C
16.12.2001 17:00 -3.3 C 56 % 1028.5 hPa 0.0 l/m 4.7 km/h (1 Bft) O-NO -10.9 C -4.7 C
16.12.2001 18:00 -4.0 C 58 % 1028.5 hPa 0.0 l/m 2.5 km/h (1 Bft) N-NO -11.0 C -4.8 C
16.12.2001 19:00 -4.2 C 60 % 1028.6 hPa 0.0 l/m 3.1 km/h (1 Bft) NO -10.7 C -5.2 C
16.12.2001 20:00 -4.6 C 60 % 1029.5 hPa 0.0 l/m 2.5 km/h (1 Bft) NO -11.1 C -5.5 C
16.12.2001 21:00 -4.8 C 65 % 1029.5 hPa 0.0 l/m 1.2 km/h (1 Bft) NO -10.4 C -4.9 C
16.12.2001 22:00 -5.0 C 69 % 1029.5 hPa 0.0 l/m 0.2 km/h (0 Bft) NO -9.9 C -5.0 C
16.12.2001 23:00 -5.0 C 70 % 1029.5 hPa 0.0 l/m 0.9 km/h (0 Bft) NO -9.6 C -5.2 C
Min-Datum _ 14.12.01 13.12.01 13.12.01 - 10.12.01 - 14.12.01 14.12.01
_ Min-Zeit 07:31 18:16 05:28 - 00:43 - 07:49 06:19
Minimum _ -13.9 C 41 % 1020.1 hPa - 0.0 km/h (0 Bft) - -21.8 C -24.5 C
Max-Datum _ 12.12.01 11.12.01 10.12.01 13.12.01 13.12.01 - 12.12.01 12.12.01
_ Max-Zeit 12:48 05:29 10:43 18:55 18:43 - 18:12 12:48
Maximum _ 2.8 C 91 % 1035.7 hPa 0.3 l/m 54.2 km/h
O-SO (7 Bft)
- -1.2 C 2.8 C
Durchschnitt _ -4.7 C 68 % 1026.8 hPa #0.3 l/m 6.3 km/h (2 Bft) O-SO -9.9 C -7.0 C

Durchschnitt Minimum Temp.-5.1 C
Durchschnitt Maximum Temp.-4.2 C
© Kaiko 2001